Time;durP1;ratioP1;P1;durP2;ratioP2;P2;SDS_P1;SDS_P2;PMS_P1;PMS_P2;Temp;Humidity;BMP_temperature;BMP_pressure;BME280_temperature;BME280_humidity;BME280_pressure;Samples;Min_cycle;Max_cycle;Signal;HPM_P1;HPM_P2
2021/09/07 00:00:16;;;;;;;27.35;15.30;;;;;;;12.55;84.20;101250.88;5106760;28;20028;-70
2021/09/07 00:02:41;;;;;;;28.60;15.80;;;;;;;12.59;84.23;101247.38;5107087;28;20293;-70
2021/09/07 00:05:09;;;;;;;28.83;16.65;;;;;;;12.66;84.24;101248.22;5106687;28;20090;-69
2021/09/07 00:07:35;;;;;;;33.28;16.65;;;;;;;12.70;84.12;101238.66;5106693;28;20039;-68
2021/09/07 00:10:00;;;;;;;31.77;16.77;;;;;;;12.76;84.24;101229.06;5106678;28;20080;-69
2021/09/07 00:12:26;;;;;;;32.78;16.45;;;;;;;12.79;84.19;101236.00;5106805;28;20043;-70
2021/09/07 00:14:54;;;;;;;36.30;16.75;;;;;;;12.81;84.19;101236.84;5106521;28;20079;-70
2021/09/07 00:17:20;;;;;;;29.75;15.13;;;;;;;12.80;84.24;101240.34;5106535;28;20063;-71
2021/09/07 00:19:45;;;;;;;30.42;15.45;;;;;;;12.77;84.15;101237.75;5105906;28;20044;-69
2021/09/07 00:22:11;;;;;;;34.03;17.05;;;;;;;12.77;84.15;101253.38;5105501;28;20028;-69
2021/09/07 00:24:36;;;;;;;27.42;15.18;;;;;;;12.74;84.02;101256.00;5106149;28;20028;-69
2021/09/07 00:27:02;;;;;;;31.58;16.73;;;;;;;12.67;83.90;101249.09;5106192;28;20027;-69
2021/09/07 00:29:28;;;;;;;26.83;15.85;;;;;;;12.61;83.44;101248.25;5106510;28;20041;-69
2021/09/07 00:31:53;;;;;;;34.83;16.42;;;;;;;12.57;83.51;101249.09;5106320;28;20031;-69
2021/09/07 00:34:19;;;;;;;27.27;16.10;;;;;;;12.55;83.40;101245.66;5105465;28;20324;-69
2021/09/07 00:36:44;;;;;;;27.60;15.45;;;;;;;12.50;83.43;101239.59;5104960;28;20020;-69
2021/09/07 00:39:13;;;;;;;31.55;14.40;;;;;;;12.45;83.27;101233.50;5104575;28;20035;-69
2021/09/07 00:41:39;;;;;;;25.00;14.73;;;;;;;12.47;83.53;101243.06;5104470;28;20513;-68
2021/09/07 00:44:15;;;;;;;42.25;14.98;;;;;;;12.46;83.26;101245.69;5104416;28;20038;-68
2021/09/07 00:46:42;;;;;;;20.85;11.98;;;;;;;12.46;83.48;101241.31;5104594;28;20108;-68
2021/09/07 00:49:07;;;;;;;26.38;14.02;;;;;;;12.48;83.35;101255.22;5104435;28;20050;-69
2021/09/07 00:51:34;;;;;;;27.02;13.80;;;;;;;12.45;83.23;101244.81;5086150;28;20023;-69
2021/09/07 00:54:00;;;;;;;28.10;13.00;;;;;;;12.42;83.18;101241.34;5104375;28;20035;-69
2021/09/07 00:56:26;;;;;;;23.80;13.52;;;;;;;12.42;83.08;101241.34;5104310;28;20236;-68
2021/09/07 00:58:52;;;;;;;29.92;14.50;;;;;;;12.40;82.82;101236.13;5104459;28;20031;-69
2021/09/07 01:01:17;;;;;;;22.67;13.38;;;;;;;12.35;82.97;101241.34;5104527;28;20062;-69
2021/09/07 01:03:42;;;;;;;25.80;12.48;;;;;;;12.36;83.02;101237.03;5104123;28;20019;-69
2021/09/07 01:06:08;;;;;;;20.20;12.13;;;;;;;12.34;82.70;101225.75;5104247;28;20384;-69
2021/09/07 01:08:33;;;;;;;29.13;13.27;;;;;;;12.34;82.55;101226.63;5104119;28;20091;-69
2021/09/07 01:10:58;;;;;;;26.15;13.70;;;;;;;12.30;82.63;101217.06;5104756;28;20020;-69
2021/09/07 01:13:24;;;;;;;27.20;12.55;;;;;;;12.26;82.71;101212.75;5104637;28;20020;-69
2021/09/07 01:15:50;;;;;;;24.92;11.73;;;;;;;12.23;82.39;101211.03;5104306;28;20494;-68
2021/09/07 01:18:15;;;;;;;25.02;12.30;;;;;;;12.19;82.58;101206.69;5104182;28;20020;-69
2021/09/07 01:20:40;;;;;;;22.58;12.00;;;;;;;12.14;82.96;101201.47;5103695;28;20579;-69
2021/09/07 01:23:06;;;;;;;25.65;12.38;;;;;;;12.05;83.07;101188.47;5085747;28;20537;-70
2021/09/07 01:25:31;;;;;;;20.35;12.48;;;;;;;12.07;83.20;101202.34;5104195;28;20054;-69
2021/09/07 01:27:56;;;;;;;21.00;11.68;;;;;;;12.01;83.10;101205.81;5085990;28;20098;-69
2021/09/07 01:30:22;;;;;;;21.50;11.73;;;;;;;12.02;83.16;101209.28;5104186;28;20485;-69
2021/09/07 01:32:47;;;;;;;23.90;12.63;;;;;;;12.00;83.05;101216.22;5103930;28;20024;-69
2021/09/07 01:35:13;;;;;;;21.85;11.27;;;;;;;11.97;82.99;101211.03;5103932;28;20020;-68
2021/09/07 01:37:39;;;;;;;22.55;11.70;;;;;;;11.95;83.09;101217.97;5103923;28;20024;-68
2021/09/07 01:40:05;;;;;;;18.38;11.13;;;;;;;11.95;83.00;101221.44;5103936;28;20032;-68
2021/09/07 01:42:31;;;;;;;23.50;12.38;;;;;;;11.98;83.33;101216.22;5103875;28;20057;-68
2021/09/07 01:44:56;;;;;;;18.02;11.50;;;;;;;12.05;83.60;101214.50;5103656;28;20083;-68
2021/09/07 01:47:21;;;;;;;24.35;12.55;;;;;;;12.10;83.92;101215.38;5103764;28;20019;-68
2021/09/07 01:49:47;;;;;;;19.10;11.50;;;;;;;12.21;83.90;101224.91;5103571;28;20479;-69
2021/09/07 01:52:14;;;;;;;22.35;11.82;;;;;;;12.25;83.84;101218.84;5103864;28;20020;-67
2021/09/07 01:54:49;;;;;;;19.05;11.50;;;;;;;12.35;84.38;101219.66;5103587;28;20048;-68
2021/09/07 01:57:15;;;;;;;25.00;12.82;;;;;;;12.46;84.18;101217.88;5104015;28;20031;-68
2021/09/07 01:59:41;;;;;;;22.13;11.38;;;;;;;12.51;84.32;101204.84;5103669;28;20039;-68
2021/09/07 02:02:06;;;;;;;24.20;12.95;;;;;;;12.62;84.38;101217.84;5103720;28;20032;-69
2021/09/07 02:04:31;;;;;;;21.42;11.20;;;;;;;12.68;84.25;101222.16;5103405;28;20020;-67
2021/09/07 02:06:57;;;;;;;19.67;11.57;;;;;;;12.76;84.16;101216.03;5103710;28;20024;-68
2021/09/07 02:09:22;;;;;;;25.05;11.82;;;;;;;12.84;84.43;101208.16;5103702;28;20016;-68
2021/09/07 02:11:48;;;;;;;23.30;10.88;;;;;;;12.94;84.18;101210.75;5085577;28;20050;-68
2021/09/07 02:14:13;;;;;;;17.17;11.90;;;;;;;12.94;84.08;101202.94;5103581;28;20016;-68
2021/09/07 02:16:39;;;;;;;20.60;10.85;;;;;;;13.02;84.15;101212.44;5103671;28;20028;-67
2021/09/07 02:19:04;;;;;;;26.02;12.00;;;;;;;13.03;84.17;101210.72;5103382;28;20020;-68
2021/09/07 02:21:30;;;;;;;23.20;11.43;;;;;;;13.01;84.09;101217.66;5103656;28;20016;-68
2021/09/07 02:23:55;;;;;;;20.02;12.57;;;;;;;13.02;84.07;101209.81;5103402;28;20020;-68
2021/09/07 02:26:21;;;;;;;29.50;13.35;;;;;;;12.96;84.00;101190.75;5103782;28;20127;-68
2021/09/07 02:28:46;;;;;;;25.15;14.05;;;;;;;13.01;83.76;101197.69;5103478;28;20075;-68
2021/09/07 02:31:11;;;;;;;24.35;12.63;;;;;;;12.99;83.53;101202.03;5103727;28;20029;-69
2021/09/07 02:33:37;;;;;;;31.15;14.00;;;;;;;12.95;83.10;101199.44;5103450;28;20027;-70
2021/09/07 02:36:03;;;;;;;27.38;13.95;;;;;;;12.89;83.12;101200.34;5103333;28;20046;-69
2021/09/07 02:38:28;;;;;;;23.15;13.00;;;;;;;12.82;82.94;101189.09;5103405;28;20027;-68
2021/09/07 02:40:57;;;;;;;22.27;13.98;;;;;;;12.72;82.98;101188.28;5103236;28;20024;-69
2021/09/07 02:43:24;;;;;;;30.77;14.73;;;;;;;12.68;82.75;101194.38;5103357;28;20051;-68
2021/09/07 02:45:49;;;;;;;22.83;14.00;;;;;;;12.60;82.87;101183.13;5105982;28;20024;-71
2021/09/07 02:48:15;;;;;;;26.90;14.48;;;;;;;12.51;82.73;101186.63;5106850;28;20266;-69
2021/09/07 02:50:40;;;;;;;31.92;16.75;;;;;;;12.49;82.93;101191.81;5106571;28;20256;-68
2021/09/07 02:53:05;;;;;;;25.13;15.50;;;;;;;12.46;82.92;101196.22;5106672;28;20020;-68
2021/09/07 02:55:31;;;;;;;31.15;17.13;;;;;;;12.45;83.07;101192.72;5106825;28;20402;-68
2021/09/07 02:57:56;;;;;;;32.97;17.40;;;;;;;12.45;83.29;101184.91;5106899;28;20059;-69
2021/09/07 03:00:22;;;;;;;37.10;18.25;;;;;;;12.47;83.19;101182.31;5106886;28;20024;-69
2021/09/07 03:02:47;;;;;;;38.53;18.02;;;;;;;12.48;83.23;101184.03;5106470;28;20056;-69
2021/09/07 03:05:13;;;;;;;35.38;17.80;;;;;;;12.46;83.49;101175.38;5106428;28;20114;-69
2021/09/07 03:07:38;;;;;;;47.92;19.90;;;;;;;12.49;83.52;101186.63;5106705;28;20031;-69
2021/09/07 03:10:04;;;;;;;37.58;19.02;;;;;;;12.52;83.81;101188.38;5106644;28;20472;-69
2021/09/07 03:12:29;;;;;;;38.75;18.00;;;;;;;12.52;84.00;101175.34;5106432;28;20020;-69
2021/09/07 03:14:55;;;;;;;39.10;19.85;;;;;;;12.60;84.17;101183.13;5106315;28;20087;-69
2021/09/07 03:17:20;;;;;;;40.10;18.42;;;;;;;12.70;84.08;101184.78;5106506;28;20020;-69
2021/09/07 03:19:45;;;;;;;36.67;16.77;;;;;;;12.75;84.32;101183.03;5105968;28;20048;-69
2021/09/07 03:22:10;;;;;;;38.00;17.90;;;;;;;12.79;84.14;101178.69;5106235;28;20028;-70
2021/09/07 03:24:36;;;;;;;38.55;18.73;;;;;;;12.85;84.31;101177.78;5106189;28;20024;-68
2021/09/07 03:27:02;;;;;;;31.17;16.30;;;;;;;12.86;84.34;101169.09;5106233;28;20020;-69
2021/09/07 03:29:27;;;;;;;42.38;16.42;;;;;;;12.89;84.09;101171.69;5106132;28;20024;-69
2021/09/07 03:31:53;;;;;;;36.22;16.95;;;;;;;12.83;84.10;101162.16;5106153;28;20043;-69
2021/09/07 03:34:18;;;;;;;36.85;16.10;;;;;;;12.87;84.34;101163.88;5105965;28;20032;-69
2021/09/07 03:36:44;;;;;;;39.85;16.27;;;;;;;12.84;84.40;101163.88;5105901;28;20024;-68
2021/09/07 03:39:09;;;;;;;37.85;15.52;;;;;;;12.84;84.34;101170.84;5105674;28;20028;-70
2021/09/07 03:41:34;;;;;;;31.42;15.18;;;;;;;12.84;84.31;101173.44;5105722;28;20020;-69
2021/09/07 03:44:00;;;;;;;35.88;16.38;;;;;;;12.80;84.34;101170.00;5105959;28;20020;-69
2021/09/07 03:46:25;;;;;;;30.77;15.38;;;;;;;12.81;84.43;101166.50;5105699;28;20368;-69
2021/09/07 03:48:51;;;;;;;31.80;14.10;;;;;;;12.82;84.40;101163.03;5105633;28;20043;-69
2021/09/07 03:51:16;;;;;;;22.73;14.23;;;;;;;12.81;84.28;101171.72;5105617;28;20093;-69
2021/09/07 03:53:41;;;;;;;31.80;14.55;;;;;;;12.79;84.09;101168.28;5105609;28;20460;-70
2021/09/07 03:56:07;;;;;;;31.55;15.18;;;;;;;12.75;84.08;101172.63;5105551;28;20099;-69
2021/09/07 03:58:32;;;;;;;27.75;13.48;;;;;;;12.76;83.98;101174.34;5105726;28;20103;-69
2021/09/07 04:00:57;;;;;;;26.38;14.60;;;;;;;12.74;84.10;101175.22;5105359;28;20073;-70
2021/09/07 04:03:23;;;;;;;27.00;12.98;;;;;;;12.71;84.00;101175.25;5087246;28;20027;-76
2021/09/07 04:05:49;;;;;;;27.00;13.20;;;;;;;12.68;84.34;101177.88;5105305;28;20027;-68
2021/09/07 04:08:14;;;;;;;25.08;11.93;;;;;;;12.69;84.35;101177.00;5105476;28;20028;-70
2021/09/07 04:10:40;;;;;;;30.00;13.57;;;;;;;12.71;84.54;101186.56;5105121;28;20023;-69
2021/09/07 04:13:06;;;;;;;23.55;12.77;;;;;;;12.73;84.63;101181.34;5104907;28;20024;-68
2021/09/07 04:15:31;;;;;;;24.98;12.50;;;;;;;12.77;84.45;101190.84;5104911;28;20050;-68
2021/09/07 04:17:57;;;;;;;25.50;12.38;;;;;;;12.79;84.54;101183.03;5105257;28;20028;-68
2021/09/07 04:20:22;;;;;;;25.98;13.98;;;;;;;12.81;84.48;101183.91;5104481;28;20055;-68
2021/09/07 04:22:47;;;;;;;22.25;11.98;;;;;;;12.82;84.47;101186.50;5105226;28;20023;-68
2021/09/07 04:25:13;;;;;;;24.48;12.10;;;;;;;12.79;84.70;101181.28;5104822;28;20026;-67
2021/09/07 04:27:38;;;;;;;20.02;11.15;;;;;;;12.82;84.72;101186.50;5104952;28;20028;-65
2021/09/07 04:30:06;;;;;;;24.58;11.68;;;;;;;12.82;85.03;101183.88;5104762;28;20024;-68
2021/09/07 04:32:31;;;;;;;17.58;10.55;;;;;;;12.84;84.94;101176.91;5104808;28;20044;-67
2021/09/07 04:34:57;;;;;;;19.35;10.10;;;;;;;12.85;85.00;101178.66;5104641;28;20406;-67
2021/09/07 04:37:22;;;;;;;16.45;10.35;;;;;;;12.90;84.95;101178.63;5104827;28;20023;-68
2021/09/07 04:39:50;;;;;;;18.20;10.52;;;;;;;12.93;85.12;101173.41;5105012;28;20013;-68
2021/09/07 04:42:17;;;;;;;15.52;9.38;;;;;;;12.98;84.93;101173.38;5104686;28;20418;-68
2021/09/07 04:44:43;;;;;;;17.38;9.10;;;;;;;13.09;84.86;101175.91;5104783;28;20090;-68
2021/09/07 04:47:08;;;;;;;14.68;9.13;;;;;;;13.15;85.00;101170.66;5104752;28;20032;-67
2021/09/07 04:49:33;;;;;;;15.50;8.52;;;;;;;13.29;84.80;101165.31;5104617;28;20040;-66
2021/09/07 04:51:59;;;;;;;11.90;7.78;;;;;;;13.46;84.87;101161.72;5086467;28;20020;-66
2021/09/07 04:54:24;;;;;;;11.65;7.60;;;;;;;13.67;84.54;101170.28;5104584;28;20020;-66
2021/09/07 04:56:49;;;;;;;12.43;7.22;;;;;;;13.87;84.54;101173.56;5105094;28;20024;-66
2021/09/07 04:59:15;;;;;;;11.23;6.93;;;;;;;14.13;84.17;101162.00;5104500;28;20042;-67
2021/09/07 05:01:40;;;;;;;14.10;7.10;;;;;;;14.25;83.49;101160.97;5104670;28;20031;-66
2021/09/07 05:04:05;;;;;;;11.68;6.80;;;;;;;14.40;83.22;101171.25;5104116;28;20129;-68
2021/09/07 05:06:31;;;;;;;13.73;7.00;;;;;;;14.62;83.39;101167.50;5104363;28;20543;-67
2021/09/07 05:08:56;;;;;;;12.20;7.25;;;;;;;14.95;83.32;101164.44;5104135;28;20036;-65
2021/09/07 05:11:21;;;;;;;14.68;7.28;;;;;;;15.13;82.14;101167.69;5104296;28;20555;-66
2021/09/07 05:13:47;;;;;;;12.13;7.68;;;;;;;15.17;80.43;101158.91;5104103;28;20020;-65
2021/09/07 05:16:12;;;;;;;11.75;6.93;;;;;;;15.18;79.82;101165.00;5104441;28;20107;-67
2021/09/07 05:18:38;;;;;;;12.48;7.05;;;;;;;15.16;79.63;101164.16;5104396;28;20108;-67
2021/09/07 05:21:03;;;;;;;14.77;6.88;;;;;;;15.15;79.57;101172.88;5103687;28;20116;-67
2021/09/07 05:23:28;;;;;;;12.30;7.13;;;;;;;15.18;79.35;101167.59;5104175;28;20063;-67
2021/09/07 05:25:54;;;;;;;15.02;7.47;;;;;;;15.13;78.86;101170.28;5104084;28;20024;-67
2021/09/07 05:28:19;;;;;;;14.88;7.13;;;;;;;15.12;79.18;101179.03;5104252;28;20027;-66
2021/09/07 05:30:44;;;;;;;12.48;7.80;;;;;;;15.16;79.22;101174.63;5104270;28;20027;-68
2021/09/07 05:33:10;;;;;;;11.77;7.90;;;;;;;15.18;78.62;101178.06;5104127;28;20081;-68
2021/09/07 05:35:35;;;;;;;14.00;6.63;;;;;;;15.17;78.91;101176.34;5104068;28;20091;-67
2021/09/07 05:38:03;;;;;;;12.60;7.63;;;;;;;15.17;78.75;101182.47;5104095;28;20035;-66
2021/09/07 05:40:29;;;;;;;13.50;7.32;;;;;;;15.23;78.90;101186.72;5086016;28;20024;-66
2021/09/07 05:42:54;;;;;;;12.20;7.68;;;;;;;15.27;78.78;101188.38;5104166;28;20459;-66
2021/09/07 05:45:19;;;;;;;12.00;7.13;;;;;;;15.30;78.61;101193.59;5103968;28;20030;-67
2021/09/07 05:47:45;;;;;;;15.05;7.90;;;;;;;15.39;78.87;101183.84;5104182;28;20470;-67
2021/09/07 05:50:14;;;;;;;15.30;7.80;;;;;;;15.55;78.99;101182.72;5103819;28;20016;-67
2021/09/07 05:52:39;;;;;;;10.77;6.70;;;;;;;15.84;78.39;101194.44;5104370;28;20099;-66
2021/09/07 05:55:05;;;;;;;11.75;6.35;;;;;;;16.06;78.02;101183.59;5085810;28;20024;-66
2021/09/07 05:57:30;;;;;;;12.02;6.80;;;;;;;16.37;77.83;101186.50;5103805;28;20074;-67
2021/09/07 05:59:55;;;;;;;8.13;5.55;;;;;;;16.65;77.00;101176.31;5104098;28;20050;-65
2021/09/07 06:02:22;;;;;;;10.95;5.40;;;;;;;16.93;75.96;101182.72;5103805;28;20032;-66
2021/09/07 06:04:47;;;;;;;15.75;6.63;;;;;;;17.38;75.45;101186.06;5104006;28;20024;-68
2021/09/07 06:07:13;;;;;;;15.45;6.03;;;;;;;17.71;74.29;101173.88;5103900;28;20051;-66
2021/09/07 06:09:38;;;;;;;10.50;6.20;;;;;;;17.72;72.37;101169.44;5103950;28;20024;-66
2021/09/07 06:12:04;;;;;;;12.40;6.05;;;;;;;17.75;71.24;101163.28;5103800;28;20027;-66
2021/09/07 06:14:31;;;;;;;11.23;5.80;;;;;;;17.67;71.10;101161.69;5103702;28;20383;-66
2021/09/07 06:16:57;;;;;;;14.07;6.30;;;;;;;17.56;71.03;101164.59;5103798;28;20042;-67
2021/09/07 06:19:22;;;;;;;12.77;6.15;;;;;;;17.49;70.84;101164.81;5104086;28;20047;-66
2021/09/07 06:21:47;;;;;;;10.52;6.47;;;;;;;17.47;70.79;101170.09;5089214;28;20111;-67
2021/09/07 06:24:13;;;;;;;14.95;6.32;;;;;;;17.58;70.66;101175.94;5107638;28;20027;-66
2021/09/07 06:26:38;;;;;;;8.85;5.72;;;;;;;17.77;71.17;101180.72;5089203;28;20380;-67
2021/09/07 06:29:03;;;;;;;9.07;5.65;;;;;;;17.96;69.97;101175.81;5107512;28;20023;-67
2021/09/07 06:31:29;;;;;;;13.85;5.70;;;;;;;18.18;70.44;101180.50;5107372;28;20032;-67
2021/09/07 06:33:54;;;;;;;11.45;6.68;;;;;;;18.26;68.66;101179.44;5107327;28;20024;-67
2021/09/07 06:36:19;;;;;;;10.75;6.53;;;;;;;18.39;68.61;101190.44;5107301;28;20016;-67
2021/09/07 06:38:45;;;;;;;11.63;6.25;;;;;;;18.46;67.64;101178.88;5107252;28;20024;-67
2021/09/07 06:41:10;;;;;;;12.80;5.25;;;;;;;18.63;67.59;101186.25;5107187;28;20206;-68
2021/09/07 06:43:36;;;;;;;9.02;6.00;;;;;;;18.79;66.31;101188.41;5107196;28;20464;-67
2021/09/07 06:46:01;;;;;;;9.95;5.80;;;;;;;18.85;66.30;101190.00;5107059;28;20440;-68
2021/09/07 06:48:27;;;;;;;10.27;5.38;;;;;;;18.64;65.19;101189.75;5107069;28;20074;-67
2021/09/07 06:50:52;;;;;;;9.82;5.30;;;;;;;18.34;66.04;101203.72;5106898;28;20012;-68
2021/09/07 06:53:17;;;;;;;12.43;6.45;;;;;;;17.98;66.41;101201.19;5107151;28;20352;-67
2021/09/07 06:55:43;;;;;;;10.25;5.10;;;;;;;17.73;67.37;101207.09;5106916;28;20030;-67
2021/09/07 06:58:08;;;;;;;12.65;6.65;;;;;;;17.54;68.50;101211.03;5106780;28;20505;-68
2021/09/07 07:00:33;;;;;;;9.38;5.78;;;;;;;17.47;68.98;101214.72;5106916;28;20023;-67
2021/09/07 07:02:59;;;;;;;10.38;6.03;;;;;;;17.56;69.02;101216.25;5106759;28;20027;-66
2021/09/07 07:05:25;;;;;;;8.95;5.75;;;;;;;17.66;69.08;101209.88;5106547;28;20031;-66
2021/09/07 07:07:51;;;;;;;11.00;6.25;;;;;;;17.81;68.90;101213.84;5106759;28;20083;-66
2021/09/07 07:10:16;;;;;;;12.68;5.95;;;;;;;17.88;68.67;101218.94;5106896;28;20027;-67
2021/09/07 07:12:42;;;;;;;10.77;6.10;;;;;;;17.87;68.31;101206.72;5106724;28;20237;-67
2021/09/07 07:15:08;;;;;;;11.70;6.32;;;;;;;17.85;68.56;101206.75;5106620;28;20115;-67
2021/09/07 07:17:33;;;;;;;11.05;5.82;;;;;;;18.31;68.29;101194.16;5106581;28;20020;-67
2021/09/07 07:19:58;;;;;;;10.07;5.53;;;;;;;19.12;66.66;101205.88;5106397;28;20539;-67
2021/09/07 07:22:25;;;;;;;11.43;5.38;;;;;;;19.77;64.00;101201.09;5106835;28;20028;-68
2021/09/07 07:24:51;;;;;;;7.80;4.90;;;;;;;20.20;62.39;101197.88;5106448;28;20038;-66
2021/09/07 07:27:17;;;;;;;10.25;4.85;;;;;;;20.35;61.89;101211.41;5106186;28;20494;-66
2021/09/07 07:29:42;;;;;;;11.07;5.18;;;;;;;20.31;61.17;101215.94;5106059;28;20083;-65
2021/09/07 07:32:08;;;;;;;12.13;6.45;;;;;;;20.22;60.89;101214.50;5106093;28;20076;-66
2021/09/07 07:34:33;;;;;;;11.18;5.93;;;;;;;19.97;61.20;101220.59;5105986;28;20027;-65
2021/09/07 07:37:00;;;;;;;12.32;5.55;;;;;;;19.81;61.12;101229.03;5106252;28;20075;-68
2021/09/07 07:39:25;;;;;;;8.57;5.22;;;;;;;19.63;61.68;101227.06;5105964;28;20452;-66
2021/09/07 07:41:51;;;;;;;12.98;6.45;;;;;;;19.42;61.33;101230.34;5106060;28;20050;-65
2021/09/07 07:44:16;;;;;;;15.50;6.78;;;;;;;19.08;62.08;101226.97;5106059;28;20044;-66
2021/09/07 07:46:41;;;;;;;8.70;4.82;;;;;;;18.74;63.27;101225.38;5106121;28;20483;-67
2021/09/07 07:49:07;;;;;;;15.45;6.53;;;;;;;18.52;63.86;101236.53;5106045;28;20374;-66
2021/09/07 07:51:32;;;;;;;14.07;6.82;;;;;;;18.32;64.39;101231.84;5105904;28;20020;-67
2021/09/07 07:53:58;;;;;;;10.32;6.65;;;;;;;18.21;65.51;101235.59;5105915;28;20012;-66
2021/09/07 07:56:23;;;;;;;12.52;6.75;;;;;;;18.12;65.58;101233.22;5105755;28;20373;-66
2021/09/07 07:58:48;;;;;;;15.32;6.97;;;;;;;18.18;65.88;101219.94;5105661;28;20459;-67
2021/09/07 08:01:14;;;;;;;12.50;6.65;;;;;;;18.09;65.62;101221.03;5105744;28;20074;-67
2021/09/07 08:03:44;;;;;;;12.40;6.63;;;;;;;18.09;66.05;101228.91;5105576;28;20120;-67
2021/09/07 08:06:10;;;;;;;13.15;7.07;;;;;;;18.05;66.02;101229.88;5105036;28;20030;-67
2021/09/07 08:08:35;;;;;;;12.70;6.47;;;;;;;18.09;66.19;101228.91;5105455;28;20107;-69
2021/09/07 08:11:00;;;;;;;12.05;7.13;;;;;;;18.38;65.67;101233.41;5105461;28;20467;-67
2021/09/07 08:13:26;;;;;;;11.63;6.68;;;;;;;18.53;65.73;101235.59;5105224;28;20020;-67
2021/09/07 08:15:51;;;;;;;14.82;6.10;;;;;;;18.62;64.90;101238.88;5105505;28;20035;-67
2021/09/07 08:18:17;;;;;;;14.88;6.60;;;;;;;18.69;65.20;101241.28;5105700;28;20024;-67
2021/09/07 08:20:43;;;;;;;9.20;6.07;;;;;;;18.72;64.85;101245.63;5104653;28;20047;-67
2021/09/07 08:23:08;;;;;;;15.45;7.07;;;;;;;18.84;64.77;101239.13;5105520;28;20012;-67
2021/09/07 08:25:34;;;;;;;13.00;6.80;;;;;;;19.06;64.36;101249.84;5105135;28;20105;-66
2021/09/07 08:28:00;;;;;;;16.30;6.88;;;;;;;19.31;64.00;101243.84;5105212;28;20055;-65
2021/09/07 08:30:25;;;;;;;12.65;6.85;;;;;;;19.48;62.94;101244.19;5105285;28;20024;-66
2021/09/07 08:32:50;;;;;;;10.30;6.80;;;;;;;19.51;61.94;101249.38;5104989;28;20024;-66
2021/09/07 08:35:16;;;;;;;11.43;6.30;;;;;;;19.50;61.71;101253.78;5086672;28;20169;-66
2021/09/07 08:37:42;;;;;;;11.13;6.00;;;;;;;19.56;61.88;101253.59;5086755;28;20024;-67
2021/09/07 08:40:09;;;;;;;10.45;6.22;;;;;;;19.78;60.64;101257.25;5104913;28;20079;-67
2021/09/07 08:42:35;;;;;;;11.82;6.45;;;;;;;19.62;61.01;101264.81;5104189;28;20020;-66
2021/09/07 08:45:05;;;;;;;11.02;6.93;;;;;;;19.44;61.40;101267.16;5104653;28;20028;-66
2021/09/07 08:47:30;;;;;;;13.25;7.25;;;;;;;19.39;62.25;101269.91;5104791;28;20073;-66
2021/09/07 08:49:57;;;;;;;12.00;6.50;;;;;;;19.37;62.25;101276.16;5104680;28;20028;-66
2021/09/07 08:52:24;;;;;;;14.35;7.25;;;;;;;19.40;62.65;101276.06;5104990;28;20023;-66
2021/09/07 08:54:50;;;;;;;15.82;7.00;;;;;;;19.52;62.00;101280.91;5104400;28;20019;-66
2021/09/07 08:57:16;;;;;;;17.60;7.65;;;;;;;19.54;62.52;101276.47;5104704;28;20421;-67
2021/09/07 08:59:41;;;;;;;18.33;6.82;;;;;;;19.53;62.20;101293.19;5104484;28;20031;-67
2021/09/07 09:02:17;;;;;;;11.68;7.20;;;;;;;19.44;62.28;101286.44;5104363;28;20039;-67
2021/09/07 09:04:48;;;;;;;11.70;6.32;;;;;;;19.42;61.97;101290.03;5104187;28;20020;-67
2021/09/07 09:07:18;;;;;;;10.13;6.70;;;;;;;19.37;62.00;101290.19;5104545;28;20023;-67
2021/09/07 09:09:45;;;;;;;14.40;7.78;;;;;;;19.31;62.17;101274.59;5104267;28;20088;-67
2021/09/07 09:12:10;;;;;;;12.05;7.38;;;;;;;19.15;62.78;101285.56;5104436;28;20062;-66
2021/09/07 09:14:41;;;;;;;13.82;7.55;;;;;;;19.00;63.31;101280.75;5104405;28;20019;-66
2021/09/07 09:17:22;;;;;;;11.52;6.80;;;;;;;18.86;63.29;101287.28;5104008;28;20020;-66
2021/09/07 09:19:49;;;;;;;11.15;7.25;;;;;;;18.86;63.61;101275.91;5103604;28;20055;-67
2021/09/07 09:22:14;;;;;;;12.20;6.75;;;;;;;18.78;64.04;101279.63;5104218;28;20340;-67
2021/09/07 09:24:40;;;;;;;11.65;7.35;;;;;;;18.70;63.98;101271.09;5104065;28;20492;-66
2021/09/07 09:27:05;;;;;;;11.27;6.80;;;;;;;18.62;64.04;101266.06;5103918;28;20118;-66
2021/09/07 09:29:32;;;;;;;15.70;8.48;;;;;;;18.56;64.39;101269.69;5104103;28;20089;-66
2021/09/07 09:32:10;;;;;;;14.73;7.65;;;;;;;18.58;65.01;101272.28;5086158;28;20028;-67
2021/09/07 09:34:37;;;;;;;14.18;7.75;;;;;;;18.55;65.36;101273.25;5103845;28;20020;-66
2021/09/07 09:37:07;;;;;;;10.30;6.65;;;;;;;18.58;65.38;101277.53;5086005;28;20024;-67
2021/09/07 09:39:38;;;;;;;14.18;7.53;;;;;;;18.51;65.31;101269.00;5104149;28;20094;-66
2021/09/07 09:42:04;;;;;;;11.20;7.32;;;;;;;18.37;65.57;101276.41;5103990;28;20059;-66
2021/09/07 09:44:30;;;;;;;15.13;8.18;;;;;;;18.13;66.33;101278.78;5104259;28;20032;-66
2021/09/07 09:46:55;;;;;;;12.75;8.60;;;;;;;17.98;66.82;101270.34;5104056;28;20028;-66
2021/09/07 09:49:27;;;;;;;14.50;7.53;;;;;;;17.87;67.72;101269.75;5104271;28;20028;-67
2021/09/07 09:51:59;;;;;;;13.90;7.68;;;;;;;17.84;67.68;101274.19;5103973;28;20027;-66
2021/09/07 09:54:25;;;;;;;15.95;8.10;;;;;;;17.81;67.97;101281.28;5106553;28;20040;-66
2021/09/07 09:56:51;;;;;;;13.48;8.50;;;;;;;17.76;67.91;101281.41;5108012;28;20046;-67
2021/09/07 09:59:18;;;;;;;13.85;8.68;;;;;;;17.73;68.41;101272.75;5089771;28;20088;-67
2021/09/07 10:01:43;;;;;;;16.40;7.60;;;;;;;17.63;68.43;101285.22;5107489;28;20096;-66
2021/09/07 10:04:11;;;;;;;16.33;7.80;;;;;;;17.58;68.78;101277.47;5089070;28;20034;-66
2021/09/07 10:06:37;;;;;;;18.10;8.20;;;;;;;17.53;69.25;101274.94;5107617;28;20106;-66
2021/09/07 10:09:03;;;;;;;17.48;8.85;;;;;;;17.45;69.79;101276.88;5107560;28;20024;-66
2021/09/07 10:11:31;;;;;;;16.27;8.77;;;;;;;17.29;69.94;101268.50;5089535;28;20027;-66
2021/09/07 10:14:01;;;;;;;14.02;8.85;;;;;;;17.35;70.20;101276.22;5107752;28;20127;-66
2021/09/07 10:16:33;;;;;;;13.30;7.95;;;;;;;17.34;70.58;101274.50;5107612;28;20059;-65
2021/09/07 10:19:10;;;;;;;13.35;8.25;;;;;;;17.36;70.80;101279.72;5107731;28;20035;-67
2021/09/07 10:26:38;;;;;;;16.67;9.40;;;;;;;17.44;70.47;101275.16;5107884;28;20047;-67
2021/09/07 10:29:08;;;;;;;15.13;9.10;;;;;;;17.38;70.85;101277.94;5107561;28;20075;-67
2021/09/07 10:31:40;;;;;;;15.68;8.63;;;;;;;17.36;70.59;101271.84;5107626;28;20038;-66
2021/09/07 10:34:05;;;;;;;15.98;9.25;;;;;;;17.36;70.71;101277.09;5107255;28;20048;-67
2021/09/07 10:36:54;;;;;;;20.92;9.77;;;;;;;17.34;71.22;101272.75;5107169;28;20043;-67
2021/09/07 10:39:30;;;;;;;20.52;10.70;;;;;;;17.44;70.60;101272.53;5107293;28;20115;-67
2021/09/07 10:41:56;;;;;;;20.83;10.25;;;;;;;17.48;70.38;101265.47;5107255;28;20024;-67
2021/09/07 10:44:31;;;;;;;20.23;9.88;;;;;;;17.49;70.53;101275.94;5107320;28;20115;-67
2021/09/07 10:46:57;;;;;;;17.63;9.90;;;;;;;17.49;70.34;101275.94;5107306;28;20020;-67
2021/09/07 10:49:37;;;;;;;15.65;9.40;;;;;;;17.49;70.32;101275.94;5107478;28;20016;-67
2021/09/07 10:52:14;;;;;;;20.88;10.07;;;;;;;17.46;70.33;101275.97;5106902;28;20079;-66
2021/09/07 10:54:41;;;;;;;17.83;10.65;;;;;;;17.46;69.85;101268.09;5106840;28;20062;-67
2021/09/07 10:57:08;;;;;;;17.67;10.02;;;;;;;17.44;70.36;101259.41;5106764;28;20045;-67
2021/09/07 10:59:50;;;;;;;20.83;10.00;;;;;;;17.72;70.25;101266.63;5106669;28;20035;-67
2021/09/07 11:02:50;;;;;;;16.13;9.15;;;;;;;18.18;69.34;101255.84;5106783;28;20024;-67
2021/09/07 11:05:25;;;;;;;17.83;9.90;;;;;;;18.35;68.07;101254.53;5100986;28;20036;-67
2021/09/07 11:07:53;;;;;;;15.98;9.25;;;;;;;18.35;68.21;101252.78;5106619;28;20061;-67
2021/09/07 11:10:19;;;;;;;18.88;10.15;;;;;;;18.38;67.93;101247.44;5106510;28;20028;-66
2021/09/07 11:13:06;;;;;;;18.88;9.32;;;;;;;18.36;67.90;101261.50;5106680;28;20026;-67
2021/09/07 11:15:34;;;;;;;20.50;11.70;;;;;;;18.26;67.06;101259.13;5106955;28;20092;-67